createdAt,value
2023-03-27T00:01:16.283Z,2.23
2023-03-27T00:03:43.348Z,2.47
2023-03-27T00:06:16.282Z,2.00
2023-03-27T00:08:48.567Z,1.90
2023-03-27T00:11:16.934Z,2.07
2023-03-27T00:13:50.355Z,1.90
2023-03-27T00:16:22.823Z,1.57
2023-03-27T00:18:49.665Z,1.90
2023-03-27T00:21:16.448Z,2.27
2023-03-27T00:23:43.274Z,1.83
2023-03-27T00:26:11.931Z,2.23
2023-03-27T00:28:39.232Z,1.87
2023-03-27T00:31:13.891Z,3.40
2023-03-27T00:33:41.266Z,2.10
2023-03-27T00:36:08.787Z,1.80
2023-03-27T00:38:35.590Z,2.10
2023-03-27T00:41:03.088Z,2.17
2023-03-27T00:43:35.177Z,2.43
2023-03-27T00:46:07.937Z,2.07
2023-03-27T00:48:37.602Z,2.27
2023-03-27T00:51:06.077Z,2.63
2023-03-27T00:53:33.646Z,2.43
2023-03-27T00:56:03.784Z,2.00
2023-03-27T00:58:37.206Z,2.40
2023-03-27T01:01:04.052Z,2.47
2023-03-27T01:03:32.633Z,1.80
2023-03-27T01:06:02.171Z,2.57
2023-03-27T01:08:31.958Z,1.80
2023-03-27T01:11:09.465Z,2.20
2023-03-27T01:14:05.102Z,2.27
2023-03-27T01:17:09.490Z,2.23
2023-03-27T01:19:57.148Z,2.00
2023-03-27T01:23:05.178Z,2.70
2023-03-27T01:26:09.525Z,2.03
2023-03-27T01:29:12.963Z,1.83
2023-03-27T01:32:17.133Z,2.20
2023-03-27T01:35:08.653Z,2.27
2023-03-27T01:38:03.891Z,2.07
2023-03-27T01:41:00.700Z,2.17
2023-03-27T01:43:36.826Z,1.97
2023-03-27T01:46:12.266Z,1.87
2023-03-27T01:49:00.031Z,1.90
2023-03-27T01:51:34.927Z,2.27
2023-03-27T01:54:12.274Z,2.40
2023-03-27T01:56:46.115Z,2.33
2023-03-27T01:59:18.627Z,2.87
2023-03-27T02:01:52.381Z,2.97
2023-03-27T02:04:24.871Z,2.13
2023-03-27T02:06:57.423Z,1.90
2023-03-27T02:09:34.277Z,2.47
2023-03-27T02:12:11.899Z,1.93
2023-03-27T02:15:23.407Z,2.20
2023-03-27T02:17:56.989Z,2.43
2023-03-27T02:20:24.217Z,2.20
2023-03-27T02:22:51.472Z,2.30
2023-03-27T02:25:23.169Z,2.67
2023-03-27T02:28:26.059Z,2.70
2023-03-27T02:31:31.724Z,2.03
2023-03-27T02:34:21.889Z,2.17
2023-03-27T02:36:55.486Z,1.70
2023-03-27T02:39:38.274Z,2.30
2023-03-27T02:42:19.307Z,2.37
2023-03-27T02:45:18.514Z,1.70
2023-03-27T02:48:04.621Z,1.90
2023-03-27T02:50:39.044Z,2.60
2023-03-27T02:53:07.247Z,2.63
2023-03-27T02:55:41.417Z,2.00
2023-03-27T02:58:19.024Z,1.90
2023-03-27T03:00:49.198Z,2.70
2023-03-27T03:03:30.396Z,2.33
2023-03-27T03:05:57.957Z,2.10
2023-03-27T03:08:30.315Z,2.37
2023-03-27T03:11:02.758Z,1.93
2023-03-27T03:13:29.519Z,2.03
2023-03-27T03:15:56.215Z,2.20
2023-03-27T03:18:23.175Z,2.20
2023-03-27T03:20:50.021Z,1.83
2023-03-27T03:23:16.892Z,1.53
2023-03-27T03:25:44.726Z,1.70
2023-03-27T03:28:13.047Z,2.03
2023-03-27T03:30:43.352Z,2.23
2023-03-27T03:33:10.127Z,2.23
2023-03-27T03:35:37.150Z,1.50
2023-03-27T03:38:03.898Z,2.73
2023-03-27T03:40:31.508Z,1.90
2023-03-27T03:42:58.587Z,2.37
2023-03-27T03:45:25.373Z,2.30
2023-03-27T03:47:52.095Z,2.40
2023-03-27T03:50:18.864Z,1.80
2023-03-27T03:52:47.100Z,1.97
2023-03-27T03:55:15.929Z,1.70
2023-03-27T03:57:47.531Z,2.00
2023-03-27T04:00:16.964Z,1.80
2023-03-27T04:02:44.128Z,1.90
2023-03-27T04:05:11.112Z,2.00
2023-03-27T04:07:40.058Z,1.83
2023-03-27T04:10:08.687Z,2.10
2023-03-27T04:12:35.649Z,2.60
2023-03-27T04:15:02.417Z,2.70
2023-03-27T04:17:29.260Z,2.20
2023-03-27T04:19:56.049Z,2.00
2023-03-27T04:22:23.338Z,2.10
2023-03-27T04:24:50.596Z,1.87
2023-03-27T04:27:18.018Z,1.90
2023-03-27T04:29:47.417Z,2.03
2023-03-27T04:32:19.396Z,1.77
2023-03-27T04:34:48.262Z,1.83
2023-03-27T04:37:15.840Z,2.10
2023-03-27T04:39:46.371Z,2.20
2023-03-27T04:42:16.462Z,2.00
2023-03-27T04:44:46.498Z,1.73
2023-03-27T04:47:13.434Z,2.77
2023-03-27T04:49:46.684Z,2.20
2023-03-27T04:52:16.649Z,2.23
2023-03-27T04:54:44.117Z,2.00
2023-03-27T04:57:11.324Z,1.97
2023-03-27T04:59:38.115Z,2.00
2023-03-27T05:02:06.402Z,2.03
2023-03-27T05:04:33.487Z,1.70
2023-03-27T05:07:00.694Z,1.87
2023-03-27T05:09:27.445Z,1.83
2023-03-27T05:11:54.194Z,2.00
2023-03-27T05:14:22.953Z,2.17
2023-03-27T05:16:50.518Z,2.70
2023-03-27T05:19:19.423Z,2.03
2023-03-27T05:21:47.039Z,2.10
2023-03-27T05:24:15.454Z,1.73
2023-03-27T05:26:43.280Z,1.60
2023-03-27T05:29:10.117Z,1.87
2023-03-27T05:31:37.413Z,1.90
2023-03-27T05:34:05.713Z,2.30
2023-03-27T05:36:32.517Z,1.90
2023-03-27T05:38:59.517Z,1.70
2023-03-27T05:41:26.510Z,2.40
2023-03-27T05:43:53.526Z,1.67
2023-03-27T05:46:21.851Z,2.30
2023-03-27T05:48:48.964Z,2.20
2023-03-27T05:51:16.488Z,2.27
2023-03-27T05:53:43.540Z,2.23
2023-03-27T05:56:10.527Z,2.23
2023-03-27T05:58:38.706Z,2.07
2023-03-27T06:01:05.954Z,1.90
2023-03-27T06:03:36.717Z,2.13
2023-03-27T06:06:11.176Z,2.47
2023-03-27T06:08:38.450Z,2.57
2023-03-27T06:11:12.510Z,3.40
2023-03-27T06:13:39.273Z,2.83
2023-03-27T06:16:07.018Z,2.23
2023-03-27T06:18:34.172Z,2.27
2023-03-27T06:21:01.734Z,2.07
2023-03-27T06:23:28.593Z,2.20
2023-03-27T06:25:55.645Z,2.60
2023-03-27T06:28:22.692Z,1.90
2023-03-27T06:30:50.363Z,2.37
2023-03-27T06:33:17.175Z,2.57
2023-03-27T06:35:53.187Z,2.80
2023-03-27T06:38:21.076Z,4.37
2023-03-27T06:40:47.915Z,5.70
2023-03-27T06:43:18.138Z,4.03
2023-03-27T06:45:47.333Z,4.30
2023-03-27T06:48:21.383Z,5.03
2023-03-27T06:50:50.973Z,3.90
2023-03-27T06:55:49.262Z,2.10
2023-03-27T06:58:18.887Z,2.70
2023-03-27T07:00:47.161Z,3.40
2023-03-27T07:03:15.130Z,1.73
2023-03-27T07:05:42.716Z,2.10
2023-03-27T07:08:22.466Z,2.90
2023-03-27T07:10:59.701Z,1.87
2023-03-27T07:13:34.877Z,2.30
2023-03-27T07:16:01.758Z,2.23
2023-03-27T07:18:28.645Z,2.20
2023-03-27T07:20:55.653Z,1.97
2023-03-27T07:23:22.648Z,2.30
2023-03-27T07:25:50.241Z,2.53
2023-03-27T07:28:18.499Z,2.03
2023-03-27T07:30:45.578Z,2.03
2023-03-27T07:33:12.826Z,2.13
2023-03-27T07:35:44.253Z,2.30
2023-03-27T07:38:11.334Z,1.70
2023-03-27T07:40:40.576Z,2.77
2023-03-27T07:43:07.730Z,1.90
2023-03-27T07:45:35.719Z,1.60
2023-03-27T07:48:16.082Z,1.90
2023-03-27T07:50:43.543Z,2.20
2023-03-27T07:53:10.386Z,2.10
2023-03-27T07:55:59.140Z,2.00
2023-03-27T07:58:26.454Z,3.67
2023-03-27T08:00:53.370Z,2.83
2023-03-27T08:03:22.131Z,1.97
2023-03-27T08:05:57.737Z,2.00
2023-03-27T08:08:25.873Z,1.73
2023-03-27T08:10:56.874Z,2.17
2023-03-27T08:13:24.181Z,1.73
2023-03-27T08:15:51.205Z,2.00
2023-03-27T08:18:18.046Z,2.17
2023-03-27T08:20:45.738Z,2.17
2023-03-27T08:23:12.680Z,2.17
2023-03-27T08:25:39.920Z,2.17
2023-03-27T08:28:07.182Z,2.30
2023-03-27T08:30:35.314Z,2.10
2023-03-27T08:33:02.390Z,1.90
2023-03-27T08:35:29.199Z,2.10
2023-03-27T08:37:56.233Z,1.90
2023-03-27T08:40:29.929Z,2.83
2023-03-27T08:43:07.004Z,2.57
2023-03-27T08:45:58.202Z,1.90
2023-03-27T08:48:42.107Z,1.90
2023-03-27T08:51:31.669Z,1.87
2023-03-27T08:54:23.298Z,2.63
2023-03-27T08:56:50.634Z,1.77
2023-03-27T08:59:24.629Z,2.00
2023-03-27T09:02:25.339Z,2.47
2023-03-27T09:05:04.924Z,1.77
2023-03-27T09:07:41.567Z,2.03
2023-03-27T09:10:31.422Z,1.90
2023-03-27T09:13:16.005Z,1.87
2023-03-27T09:15:51.957Z,1.93
2023-03-27T09:18:37.938Z,2.00
2023-03-27T09:21:45.375Z,1.67
2023-03-27T09:24:22.285Z,1.73
2023-03-27T09:27:04.585Z,1.33
2023-03-27T09:29:39.331Z,1.60
2023-03-27T09:32:14.560Z,2.23
2023-03-27T09:34:41.932Z,1.50
2023-03-27T09:37:14.767Z,1.80
2023-03-27T09:39:50.161Z,2.03
2023-03-27T09:42:24.012Z,2.23
2023-03-27T09:44:56.953Z,1.60
2023-03-27T09:47:33.089Z,2.30
2023-03-27T09:50:19.791Z,2.20
2023-03-27T09:52:46.966Z,1.70
2023-03-27T09:55:34.478Z,1.90
2023-03-27T09:58:14.235Z,1.57
2023-03-27T10:00:41.177Z,2.30
2023-03-27T10:03:16.627Z,1.70
2023-03-27T10:05:45.143Z,1.80
2023-03-27T10:08:37.648Z,2.53
2023-03-27T10:11:08.024Z,1.80
2023-03-27T10:13:35.349Z,1.63
2023-03-27T10:16:06.034Z,2.07
2023-03-27T10:18:41.805Z,2.60
2023-03-27T10:21:11.821Z,2.20
2023-03-27T10:23:50.056Z,2.17
2023-03-27T10:26:19.673Z,1.60
2023-03-27T10:28:52.110Z,2.10
2023-03-27T10:31:32.060Z,1.77
2023-03-27T10:34:02.548Z,1.37
2023-03-27T10:36:34.505Z,1.37
2023-03-27T10:39:07.465Z,1.73
2023-03-27T10:41:36.645Z,2.17
2023-03-27T10:44:12.242Z,1.80
2023-03-27T10:46:40.994Z,2.00
2023-03-27T10:49:10.865Z,1.70
2023-03-27T10:51:51.759Z,2.13
2023-03-27T10:54:34.611Z,1.83
2023-03-27T10:57:02.553Z,1.33
2023-03-27T10:59:42.323Z,2.03
2023-03-27T11:02:29.307Z,1.47
2023-03-27T11:05:02.367Z,1.50
2023-03-27T11:07:33.985Z,1.50
2023-03-27T11:10:24.967Z,1.77
2023-03-27T11:13:16.398Z,1.40
2023-03-27T11:16:07.549Z,1.53
2023-03-27T11:18:40.979Z,1.70
2023-03-27T11:21:36.012Z,1.60
2023-03-27T11:24:05.523Z,1.70
2023-03-27T11:27:01.985Z,1.40
2023-03-27T11:29:39.787Z,1.23
2023-03-27T11:32:20.329Z,1.40
2023-03-27T11:35:04.112Z,1.50
2023-03-27T11:37:54.558Z,1.30
2023-03-27T11:40:36.889Z,1.53
2023-03-27T11:43:04.259Z,1.40
2023-03-27T11:46:04.090Z,1.60
2023-03-27T11:48:43.992Z,1.60
2023-03-27T11:51:36.894Z,1.50
2023-03-27T11:54:20.366Z,1.53
2023-03-27T11:56:52.522Z,2.07
2023-03-27T11:59:55.384Z,1.80
2023-03-27T12:02:55.995Z,1.47
2023-03-27T12:06:02.093Z,1.30
2023-03-27T12:09:00.296Z,1.93
2023-03-27T12:11:36.689Z,2.10
2023-03-27T12:14:44.687Z,1.83
2023-03-27T12:17:16.624Z,1.67
2023-03-27T12:19:58.443Z,1.43
2023-03-27T12:22:43.835Z,1.80
2023-03-27T12:25:35.932Z,1.30
2023-03-27T12:28:22.117Z,1.43
2023-03-27T12:31:05.614Z,1.40
2023-03-27T12:33:39.135Z,1.30
2023-03-27T12:36:13.564Z,1.37
2023-03-27T12:38:42.488Z,1.70
2023-03-27T12:41:11.064Z,1.90
2023-03-27T12:43:41.129Z,1.80
2023-03-27T12:46:41.845Z,1.70
2023-03-27T12:49:10.777Z,1.47
2023-03-27T12:51:57.829Z,1.77
2023-03-27T12:54:38.530Z,1.70
2023-03-27T12:57:20.860Z,1.63
2023-03-27T12:59:59.852Z,1.50
2023-03-27T13:02:35.883Z,1.80
2023-03-27T13:05:20.368Z,1.83
2023-03-27T13:08:11.236Z,1.40
2023-03-27T13:10:59.275Z,1.80
2023-03-27T13:13:44.735Z,1.70
2023-03-27T13:16:37.642Z,1.13
2023-03-27T13:19:26.054Z,1.60
2023-03-27T13:22:27.844Z,2.00
2023-03-27T13:25:16.383Z,1.67
2023-03-27T13:27:48.907Z,1.90
2023-03-27T13:30:42.163Z,1.77
2023-03-27T13:33:13.481Z,1.70
2023-03-27T13:35:51.307Z,1.50
2023-03-27T13:38:45.261Z,1.87
2023-03-27T13:41:45.910Z,1.97
2023-03-27T13:44:23.937Z,1.53
2023-03-27T13:46:57.469Z,1.40
2023-03-27T13:49:33.224Z,1.73
2023-03-27T13:52:34.040Z,1.90
2023-03-27T13:55:19.517Z,1.40
2023-03-27T13:57:58.964Z,2.07
2023-03-27T14:00:52.950Z,1.57
2023-03-27T14:03:37.422Z,1.47
2023-03-27T14:06:15.972Z,1.60
2023-03-27T14:08:55.357Z,1.57
2023-03-27T14:11:46.617Z,2.03
2023-03-27T14:14:19.309Z,1.60
2023-03-27T14:17:24.273Z,1.50
2023-03-27T14:20:25.269Z,1.20
2023-03-27T14:23:06.593Z,1.40
2023-03-27T14:25:38.259Z,1.40
2023-03-27T14:28:10.383Z,1.40
2023-03-27T14:30:48.809Z,1.20
2023-03-27T14:33:20.187Z,1.37
2023-03-27T14:35:54.766Z,1.57
2023-03-27T14:38:25.431Z,1.50
2023-03-27T14:41:00.753Z,1.37
2023-03-27T14:43:29.101Z,1.93
2023-03-27T14:46:05.972Z,1.97
2023-03-27T14:48:41.295Z,1.43
2023-03-27T14:51:13.504Z,1.57
2023-03-27T14:53:44.119Z,1.53
2023-03-27T14:56:38.383Z,1.87
2023-03-27T14:59:12.444Z,1.83
2023-03-27T15:01:40.145Z,1.20
2023-03-27T15:04:09.996Z,1.33
2023-03-27T15:06:38.707Z,1.60
2023-03-27T15:09:14.549Z,1.67
2023-03-27T15:11:44.386Z,2.00
2023-03-27T15:14:18.513Z,1.77
2023-03-27T15:16:52.972Z,1.47
2023-03-27T15:19:20.997Z,1.63
2023-03-27T15:21:59.772Z,1.90
2023-03-27T15:24:40.691Z,1.37
2023-03-27T15:27:17.580Z,1.70
2023-03-27T15:29:49.488Z,1.40
2023-03-27T15:32:19.079Z,1.60
2023-03-27T15:34:51.204Z,1.77
2023-03-27T15:37:23.895Z,1.47
2023-03-27T15:40:01.635Z,1.33
2023-03-27T15:43:00.169Z,1.50
2023-03-27T15:45:42.234Z,1.50
2023-03-27T15:48:45.498Z,1.77
2023-03-27T15:51:18.237Z,1.43
2023-03-27T15:53:50.502Z,1.80
2023-03-27T15:56:22.152Z,1.53
2023-03-27T15:59:04.310Z,1.93
2023-03-27T16:01:40.252Z,2.10
2023-03-27T16:04:13.105Z,1.70
2023-03-27T16:06:42.234Z,1.50
2023-03-27T16:09:31.917Z,1.63
2023-03-27T16:11:59.658Z,1.80
2023-03-27T16:14:41.754Z,1.43
2023-03-27T16:17:10.893Z,2.10
2023-03-27T16:20:23.859Z,1.67
2023-03-27T16:22:54.017Z,1.40
2023-03-27T16:25:20.767Z,1.77
2023-03-27T16:27:54.902Z,2.00
2023-03-27T16:30:30.597Z,1.60
2023-03-27T16:32:57.479Z,1.50
2023-03-27T16:35:24.721Z,1.40
2023-03-27T16:37:51.637Z,1.60
2023-03-27T16:40:18.570Z,1.47
2023-03-27T16:42:45.442Z,1.53
2023-03-27T16:45:12.529Z,1.70
2023-03-27T16:47:41.392Z,1.87
2023-03-27T16:50:12.469Z,1.97
2023-03-27T16:52:39.426Z,1.57
2023-03-27T16:55:07.680Z,1.90
2023-03-27T16:57:35.300Z,1.83
2023-03-27T17:00:02.330Z,1.63
2023-03-27T17:02:30.748Z,1.60
2023-03-27T17:04:58.880Z,1.80
2023-03-27T17:07:27.399Z,1.40
2023-03-27T17:09:54.334Z,1.85
2023-03-27T17:12:21.081Z,1.97
2023-03-27T17:14:47.830Z,2.17
2023-03-27T17:17:14.609Z,1.60
2023-03-27T17:19:41.396Z,1.70
2023-03-27T17:22:09.020Z,1.83
2023-03-27T17:24:49.306Z,1.77
2023-03-27T17:27:22.764Z,1.80
2023-03-27T17:29:49.533Z,2.27
2023-03-27T17:32:16.362Z,1.63
2023-03-27T17:34:43.143Z,1.70
2023-03-27T17:37:09.937Z,1.70
2023-03-27T17:39:36.675Z,1.50
2023-03-27T17:42:03.710Z,1.60
2023-03-27T17:44:30.630Z,1.77
2023-03-27T17:46:57.543Z,1.53
2023-03-27T17:49:24.586Z,1.90
2023-03-27T17:51:52.254Z,1.60
2023-03-27T17:54:19.069Z,1.30
2023-03-27T17:56:46.548Z,2.17
2023-03-27T17:59:13.304Z,1.77
2023-03-27T18:01:40.202Z,2.00
2023-03-27T18:04:07.560Z,1.90
2023-03-27T18:06:34.590Z,1.70
2023-03-27T18:09:01.360Z,1.93
2023-03-27T18:11:29.553Z,1.50
2023-03-27T18:13:56.476Z,1.50
2023-03-27T18:16:23.516Z,2.00
2023-03-27T18:18:52.324Z,1.77
2023-03-27T18:21:19.126Z,1.90
2023-03-27T18:23:46.940Z,1.93
2023-03-27T18:26:14.614Z,1.50
2023-03-27T18:28:41.359Z,2.00
2023-03-27T18:31:10.614Z,1.40
2023-03-27T18:33:38.185Z,1.50
2023-03-27T18:36:10.666Z,1.50
2023-03-27T18:38:39.952Z,1.50
2023-03-27T18:41:06.916Z,1.20
2023-03-27T18:43:33.916Z,2.07
2023-03-27T18:46:04.283Z,1.60
2023-03-27T18:48:31.609Z,1.60
2023-03-27T18:51:01.012Z,1.63
2023-03-27T18:53:27.877Z,2.37
2023-03-27T18:55:55.893Z,3.43
2023-03-27T18:58:24.383Z,4.40
2023-03-27T19:00:51.270Z,3.73
2023-03-27T19:03:19.987Z,4.17
2023-03-27T19:05:47.699Z,4.07
2023-03-27T19:08:15.907Z,3.00
2023-03-27T19:10:43.221Z,2.93
2023-03-27T19:13:10.337Z,2.73
2023-03-27T19:15:37.182Z,2.30
2023-03-27T19:18:04.165Z,2.30
2023-03-27T19:20:31.068Z,2.33
2023-03-27T19:22:57.876Z,2.50
2023-03-27T19:25:24.648Z,2.77
2023-03-27T19:27:51.457Z,2.47
2023-03-27T19:30:18.431Z,2.50
2023-03-27T19:32:45.248Z,2.23
2023-03-27T19:35:12.316Z,2.60
2023-03-27T19:37:39.020Z,2.20
2023-03-27T19:40:06.433Z,3.03
2023-03-27T19:42:33.211Z,2.53
2023-03-27T19:44:59.947Z,2.70
2023-03-27T19:47:26.841Z,2.20
2023-03-27T19:49:54.469Z,2.40
2023-03-27T19:52:21.246Z,2.40
2023-03-27T19:54:47.996Z,2.60
2023-03-27T19:57:15.465Z,3.03
2023-03-27T19:59:42.242Z,2.57
2023-03-27T20:02:12.107Z,2.63
2023-03-27T20:04:39.153Z,2.43
2023-03-27T20:07:07.584Z,3.17
2023-03-27T20:09:34.908Z,3.00
2023-03-27T20:12:02.128Z,3.73
2023-03-27T20:14:29.189Z,3.40
2023-03-27T20:16:55.993Z,3.30
2023-03-27T20:19:26.988Z,2.87
2023-03-27T20:21:55.537Z,3.93
2023-03-27T20:24:22.316Z,3.77
2023-03-27T20:26:53.221Z,3.67
2023-03-27T20:29:22.968Z,3.73
2023-03-27T20:31:50.093Z,2.93
2023-03-27T20:34:19.242Z,3.10
2023-03-27T20:36:46.431Z,3.60
2023-03-27T20:39:14.290Z,3.73
2023-03-27T20:41:41.318Z,3.63
2023-03-27T20:44:18.486Z,3.20
2023-03-27T20:46:51.599Z,3.27
2023-03-27T20:49:39.783Z,3.23
2023-03-27T20:52:08.626Z,3.33
2023-03-27T20:54:35.442Z,4.30
2023-03-27T20:57:02.866Z,4.10
2023-03-27T20:59:31.050Z,3.80
2023-03-27T21:01:59.428Z,3.70
2023-03-27T21:04:28.139Z,4.03
2023-03-27T21:06:55.486Z,4.13
2023-03-27T21:09:24.096Z,3.70
2023-03-27T21:11:51.272Z,4.10
2023-03-27T21:14:18.046Z,3.90
2023-03-27T21:16:44.921Z,3.93
2023-03-27T21:19:11.980Z,4.23
2023-03-27T21:21:39.038Z,3.70
2023-03-27T21:24:06.412Z,4.63
2023-03-27T21:26:33.682Z,4.07
2023-03-27T21:29:00.747Z,3.73
2023-03-27T21:31:27.592Z,3.67
2023-03-27T21:33:54.342Z,3.97
2023-03-27T21:36:21.180Z,3.70
2023-03-27T21:38:48.076Z,3.43
2023-03-27T21:41:16.565Z,3.00
2023-03-27T21:43:43.520Z,3.13
2023-03-27T21:46:10.662Z,3.77
2023-03-27T21:48:40.402Z,3.43
2023-03-27T21:51:08.374Z,3.30
2023-03-27T21:53:35.786Z,3.60
2023-03-27T21:56:03.062Z,3.40
2023-03-27T21:58:30.001Z,3.67
2023-03-27T22:00:57.907Z,3.30
2023-03-27T22:03:26.480Z,3.20
2023-03-27T22:06:07.904Z,3.47
2023-03-27T22:08:50.279Z,3.57
2023-03-27T22:11:16.995Z,3.40
2023-03-27T22:13:43.780Z,3.40
2023-03-27T22:16:13.672Z,3.40
2023-03-27T22:18:41.274Z,3.60
2023-03-27T22:21:23.645Z,3.37
2023-03-27T22:23:52.188Z,3.57
2023-03-27T22:26:20.397Z,3.43
2023-03-27T22:28:49.339Z,3.53
2023-03-27T22:31:16.548Z,3.47
2023-03-27T22:33:43.484Z,3.33
2023-03-27T22:36:11.839Z,4.10
2023-03-27T22:38:39.434Z,3.20
2023-03-27T22:41:07.648Z,2.93
2023-03-27T22:43:34.589Z,2.90
2023-03-27T22:46:13.182Z,3.20
2023-03-27T22:48:40.768Z,3.30
2023-03-27T22:51:08.666Z,3.40
2023-03-27T22:53:35.780Z,3.70
2023-03-27T22:56:03.197Z,3.47
2023-03-27T22:58:31.468Z,3.73
2023-03-27T23:00:58.661Z,3.20
2023-03-27T23:03:26.775Z,4.07
2023-03-27T23:05:54.700Z,3.97
2023-03-27T23:08:24.101Z,4.77
2023-03-27T23:11:01.765Z,5.40
2023-03-27T23:13:29.990Z,4.50
2023-03-27T23:15:57.232Z,4.67
2023-03-27T23:18:25.384Z,4.73
2023-03-27T23:21:00.654Z,4.43
2023-03-27T23:23:28.836Z,3.77
2023-03-27T23:25:58.200Z,3.40
2023-03-27T23:28:25.571Z,2.70
2023-03-27T23:31:01.248Z,2.77
2023-03-27T23:33:29.639Z,2.60
2023-03-27T23:36:12.299Z,2.87
2023-03-27T23:38:42.008Z,3.93
2023-03-27T23:41:10.597Z,2.63
2023-03-27T23:43:37.985Z,2.40
2023-03-27T23:46:09.082Z,2.23
2023-03-27T23:48:37.446Z,2.33
2023-03-27T23:51:05.592Z,2.47
2023-03-27T23:53:33.144Z,2.57
2023-03-27T23:56:00.585Z,2.47
2023-03-27T23:58:28.879Z,2.40
